Time;durP1;ratioP1;P1;durP2;ratioP2;P2;SDS_P1;SDS_P2;PMS_P1;PMS_P2;Temp;Humidity;BMP_temperature;BMP_pressure;BME280_temperature;BME280_humidity;BME280_pressure;Samples;Min_cycle;Max_cycle;Signal;HPM_P1;HPM_P2
2023/04/26 00:02:19;;;;;;;3.33;1.92;;;;;;;;;;8258540;28;21060;-71
2023/04/26 00:06:19;;;;;;;2.75;1.70;;;;;;;;;;8248978;28;20025;-70
2023/04/26 00:10:20;;;;;;;3.75;1.60;;;;;;;;;;8257372;28;20045;-71
2023/04/26 00:14:20;;;;;;;4.75;1.80;;;;;;;;;;8257133;28;20049;-71
2023/04/26 00:18:20;;;;;;;6.13;1.80;;;;;;;;;;8256330;28;20479;-70
2023/04/26 00:22:20;;;;;;;6.37;2.00;;;;;;;;;;8259764;28;20273;-71
2023/04/26 00:26:21;;;;;;;5.65;1.70;;;;;;;;;;8261033;28;20283;-70
2023/04/26 00:30:21;;;;;;;4.95;1.80;;;;;;;;;;8255005;28;20091;-71
2023/04/26 00:34:21;;;;;;;4.00;1.40;;;;;;;;;;8261053;28;20093;-71
2023/04/26 00:38:22;;;;;;;6.17;1.73;;;;;;;;;;8252844;28;20872;-70
2023/04/26 00:42:22;;;;;;;4.07;1.50;;;;;;;;;;8260577;28;20791;-70
2023/04/26 00:46:22;;;;;;;5.07;1.80;;;;;;;;;;8256973;28;20080;-71
2023/04/26 00:50:23;;;;;;;2.67;1.35;;;;;;;;;;8260992;28;20103;-70
2023/04/26 00:54:24;;;;;;;2.75;1.38;;;;;;;;;;8258065;28;20022;-71
2023/04/26 00:58:25;;;;;;;4.13;1.50;;;;;;;;;;8260113;28;20025;-72
2023/04/26 01:02:25;;;;;;;6.95;1.60;;;;;;;;;;8255899;28;20053;-71
2023/04/26 01:06:28;;;;;;;4.25;1.50;;;;;;;;;;8254724;28;20107;-70
2023/04/26 01:10:28;;;;;;;4.25;1.45;;;;;;;;;;8259315;28;20033;-71
2023/04/26 01:14:28;;;;;;;7.32;1.65;;;;;;;;;;8257734;28;20034;-70
2023/04/26 01:18:28;;;;;;;4.40;1.80;;;;;;;;;;8259225;28;20100;-71
2023/04/26 01:22:32;;;;;;;5.63;1.77;;;;;;;;;;8255614;28;20058;-71
2023/04/26 01:26:32;;;;;;;3.07;1.60;;;;;;;;;;8258992;28;20030;-71
2023/04/26 01:30:32;;;;;;;4.35;1.70;;;;;;;;;;8257563;28;20037;-71
2023/04/26 01:34:33;;;;;;;3.28;1.60;;;;;;;;;;8261198;28;20025;-72
2023/04/26 01:38:33;;;;;;;6.60;1.60;;;;;;;;;;8255122;28;20030;-71
2023/04/26 01:42:33;;;;;;;2.28;1.38;;;;;;;;;;8260209;28;20037;-70
2023/04/26 01:46:34;;;;;;;6.15;2.10;;;;;;;;;;8269753;28;20033;-71
2023/04/26 01:50:34;;;;;;;3.58;1.63;;;;;;;;;;8292257;28;20033;-71
2023/04/26 01:54:34;;;;;;;3.75;1.55;;;;;;;;;;8289859;28;20117;-70
2023/04/26 01:58:34;;;;;;;3.88;1.58;;;;;;;;;;8292570;28;20026;-70
2023/04/26 02:02:35;;;;;;;3.80;1.88;;;;;;;;;;8271860;28;20072;-71
2023/04/26 02:06:36;;;;;;;4.28;1.90;;;;;;;;;;8256235;28;20030;-70
2023/04/26 02:10:37;;;;;;;4.63;1.52;;;;;;;;;;8256878;28;20041;-70
2023/04/26 02:14:37;;;;;;;4.03;1.67;;;;;;;;;;8256617;28;20030;-71
2023/04/26 02:18:37;;;;;;;2.70;1.58;;;;;;;;;;8256160;28;20799;-70
2023/04/26 02:22:37;;;;;;;6.63;1.85;;;;;;;;;;8256647;28;20948;-71
2023/04/26 02:26:37;;;;;;;6.97;1.90;;;;;;;;;;8255863;28;20045;-71
2023/04/26 02:30:38;;;;;;;3.60;1.60;;;;;;;;;;8256158;28;20414;-71
2023/04/26 02:34:38;;;;;;;2.45;1.50;;;;;;;;;;8258218;28;20030;-70
2023/04/26 02:38:38;;;;;;;4.90;1.70;;;;;;;;;;8261881;28;20022;-72
2023/04/26 02:42:38;;;;;;;3.50;1.60;;;;;;;;;;8258992;28;20030;-72
2023/04/26 02:46:39;;;;;;;4.95;1.95;;;;;;;;;;8259490;28;20277;-71
2023/04/26 02:50:39;;;;;;;3.08;1.98;;;;;;;;;;8266361;28;20033;-71
2023/04/26 02:54:39;;;;;;;5.72;1.70;;;;;;;;;;8267659;28;20049;-71
2023/04/26 02:58:39;;;;;;;6.35;1.80;;;;;;;;;;8264770;28;20029;-71
2023/04/26 03:02:40;;;;;;;7.37;1.50;;;;;;;;;;8262359;28;20049;-71
2023/04/26 03:06:40;;;;;;;4.17;1.47;;;;;;;;;;8259411;28;20283;-71
2023/04/26 03:10:40;;;;;;;5.15;1.60;;;;;;;;;;8261192;28;21544;-71
2023/04/26 03:14:40;;;;;;;3.10;1.52;;;;;;;;;;8258854;28;20026;-71
2023/04/26 03:18:41;;;;;;;2.53;1.60;;;;;;;;;;8253023;28;20029;-70
2023/04/26 03:22:41;;;;;;;2.33;1.55;;;;;;;;;;8261710;28;20026;-69
2023/04/26 03:26:41;;;;;;;4.20;1.58;;;;;;;;;;8260766;28;20449;-70
2023/04/26 03:30:41;;;;;;;4.20;1.80;;;;;;;;;;8259165;28;20041;-70
2023/04/26 03:34:42;;;;;;;3.53;1.70;;;;;;;;;;8261859;28;20030;-70
2023/04/26 03:38:42;;;;;;;3.80;2.00;;;;;;;;;;8262034;28;20269;-70
2023/04/26 03:42:42;;;;;;;3.43;1.63;;;;;;;;;;8261641;28;20094;-70
2023/04/26 03:46:42;;;;;;;6.18;2.00;;;;;;;;;;8265551;28;20284;-71
2023/04/26 03:50:44;;;;;;;6.10;3.10;;;;;;;;;;8270905;28;20048;-71
2023/04/26 03:54:44;;;;;;;5.82;1.85;;;;;;;;;;8267392;28;20022;-71
2023/04/26 03:58:45;;;;;;;4.53;1.88;;;;;;;;;;8262734;28;20023;-71
2023/04/26 04:02:45;;;;;;;2.65;1.70;;;;;;;;;;8264485;28;20045;-71
2023/04/26 04:06:45;;;;;;;4.00;1.83;;;;;;;;;;8260279;28;20025;-71
2023/04/26 04:10:46;;;;;;;4.38;1.88;;;;;;;;;;8275716;28;20018;-70
2023/04/26 04:14:46;;;;;;;7.82;4.05;;;;;;;;;;8270655;28;20057;-71
2023/04/26 04:18:46;;;;;;;7.30;4.13;;;;;;;;;;8271201;28;20118;-70
2023/04/26 04:22:46;;;;;;;9.30;4.57;;;;;;;;;;8260318;28;20247;-70
2023/04/26 04:26:47;;;;;;;6.10;3.05;;;;;;;;;;8261199;28;20117;-70
2023/04/26 04:30:47;;;;;;;9.40;2.30;;;;;;;;;;8258605;28;20042;-71
2023/04/26 04:34:47;;;;;;;4.30;1.90;;;;;;;;;;8254573;28;20937;-71
2023/04/26 04:38:47;;;;;;;5.88;2.30;;;;;;;;;;8253621;28;20024;-71
2023/04/26 04:42:48;;;;;;;7.32;2.00;;;;;;;;;;8252634;28;20775;-71
2023/04/26 04:46:48;;;;;;;4.63;2.10;;;;;;;;;;8254809;28;20042;-71
2023/04/26 04:50:48;;;;;;;5.30;2.33;;;;;;;;;;8256691;28;20116;-71
2023/04/26 04:54:48;;;;;;;5.28;2.30;;;;;;;;;;8247660;28;20475;-73
2023/04/26 04:58:49;;;;;;;4.40;2.13;;;;;;;;;;8252775;28;20771;-72
2023/04/26 05:02:49;;;;;;;5.15;2.10;;;;;;;;;;8254816;28;20140;-73
2023/04/26 05:06:49;;;;;;;4.38;2.28;;;;;;;;;;8251770;28;20028;-72
2023/04/26 05:10:50;;;;;;;7.00;1.98;;;;;;;;;;8248973;28;20093;-72
2023/04/26 05:14:50;;;;;;;5.10;1.75;;;;;;;;;;8251240;28;20032;-72
2023/04/26 05:18:51;;;;;;;4.60;1.63;;;;;;;;;;8255227;28;20056;-72
2023/04/26 05:22:51;;;;;;;4.77;2.07;;;;;;;;;;8253292;28;20028;-72
2023/04/26 05:26:51;;;;;;;4.90;2.05;;;;;;;;;;8252268;28;20280;-72
2023/04/26 05:30:51;;;;;;;2.55;2.00;;;;;;;;;;8250742;28;20560;-72
2023/04/26 05:34:51;;;;;;;5.32;2.45;;;;;;;;;;8252551;28;20136;-73
2023/04/26 05:38:52;;;;;;;6.20;2.00;;;;;;;;;;8251858;28;20133;-72
2023/04/26 05:42:52;;;;;;;6.05;2.10;;;;;;;;;;8252512;28;20293;-73
2023/04/26 05:46:52;;;;;;;7.53;2.30;;;;;;;;;;8252418;28;20462;-73
2023/04/26 05:50:52;;;;;;;3.97;1.70;;;;;;;;;;8254892;28;20030;-73
2023/04/26 05:54:52;;;;;;;6.63;2.13;;;;;;;;;;8254971;28;20030;-73
2023/04/26 05:58:53;;;;;;;5.90;2.08;;;;;;;;;;8255644;28;20080;-73
2023/04/26 06:02:53;;;;;;;10.98;2.50;;;;;;;;;;8253223;28;20145;-73
2023/04/26 06:06:53;;;;;;;5.55;2.30;;;;;;;;;;8255462;28;20025;-73
2023/04/26 06:10:53;;;;;;;4.80;1.90;;;;;;;;;;8253794;28;20033;-72
2023/04/26 06:14:53;;;;;;;3.88;1.75;;;;;;;;;;8254898;28;21053;-71
2023/04/26 06:18:53;;;;;;;6.57;2.10;;;;;;;;;;8254906;28;20033;-73
2023/04/26 06:22:53;;;;;;;6.40;2.10;;;;;;;;;;8256845;28;20133;-72
2023/04/26 06:26:54;;;;;;;5.80;1.98;;;;;;;;;;8259396;28;20053;-72
2023/04/26 06:30:54;;;;;;;5.28;1.90;;;;;;;;;;8256384;28;20048;-72
2023/04/26 06:34:54;;;;;;;5.28;1.70;;;;;;;;;;8258192;28;20068;-72
2023/04/26 06:38:54;;;;;;;3.72;1.80;;;;;;;;;;8258466;28;20647;-72
2023/04/26 06:42:56;;;;;;;4.80;2.00;;;;;;;;;;8255987;28;20030;-73
2023/04/26 06:46:56;;;;;;;3.58;1.77;;;;;;;;;;8256404;28;20061;-72
2023/04/26 06:50:56;;;;;;;5.82;1.73;;;;;;;;;;8257600;28;20030;-72
2023/04/26 06:54:59;;;;;;;5.28;1.65;;;;;;;;;;8259717;28;20030;-73
2023/04/26 06:59:04;;;;;;;3.53;2.10;;;;;;;;;;8258548;28;20030;-73
2023/04/26 07:03:04;;;;;;;5.55;1.75;;;;;;;;;;8258266;28;20116;-73
2023/04/26 07:07:04;;;;;;;5.03;1.70;;;;;;;;;;8259890;28;20718;-74
2023/04/26 07:11:11;;;;;;;5.78;1.77;;;;;;;;;;8257355;28;20134;-73
2023/04/26 07:15:11;;;;;;;6.38;2.00;;;;;;;;;;8261891;28;20064;-74
2023/04/26 07:19:14;;;;;;;4.05;1.80;;;;;;;;;;8263271;28;20857;-74
2023/04/26 07:23:14;;;;;;;3.88;1.70;;;;;;;;;;8255686;28;20067;-74
2023/04/26 07:27:14;;;;;;;5.90;1.95;;;;;;;;;;8258526;28;20033;-74
2023/04/26 07:31:15;;;;;;;4.97;1.98;;;;;;;;;;8258259;28;20037;-73
2023/04/26 07:35:15;;;;;;;5.68;2.15;;;;;;;;;;8258071;28;20022;-73
2023/04/26 07:39:15;;;;;;;3.55;1.92;;;;;;;;;;8255936;28;20109;-74
2023/04/26 07:43:16;;;;;;;10.55;2.50;;;;;;;;;;8257540;28;20029;-74
2023/04/26 07:47:16;;;;;;;4.40;2.40;;;;;;;;;;8275523;28;20041;-74
2023/04/26 07:51:16;;;;;;;6.43;2.15;;;;;;;;;;8290505;28;20429;-74
2023/04/26 07:55:16;;;;;;;4.72;2.03;;;;;;;;;;8291968;28;20025;-73
2023/04/26 07:59:17;;;;;;;4.88;2.40;;;;;;;;;;8287628;28;20453;-73
2023/04/26 08:03:17;;;;;;;8.70;2.28;;;;;;;;;;8290057;28;20029;-74
2023/04/26 08:07:18;;;;;;;8.02;2.65;;;;;;;;;;8288453;28;20060;-73
2023/04/26 08:11:18;;;;;;;4.82;2.38;;;;;;;;;;8290598;28;20036;-73
2023/04/26 08:15:18;;;;;;;6.82;2.33;;;;;;;;;;8288783;28;20030;-74
2023/04/26 08:19:18;;;;;;;5.72;2.38;;;;;;;;;;8290982;28;20025;-74
2023/04/26 08:23:18;;;;;;;7.70;2.63;;;;;;;;;;8289291;28;20036;-73
2023/04/26 08:27:19;;;;;;;8.05;2.33;;;;;;;;;;8291942;28;20124;-74
2023/04/26 08:31:21;;;;;;;4.47;2.50;;;;;;;;;;8290660;28;20044;-74
2023/04/26 08:35:22;;;;;;;6.28;2.53;;;;;;;;;;8291733;28;20068;-74
2023/04/26 08:39:22;;;;;;;9.05;2.38;;;;;;;;;;8288994;28;20049;-74
2023/04/26 08:43:23;;;;;;;6.97;2.80;;;;;;;;;;8290289;28;20384;-74
2023/04/26 08:47:30;;;;;;;7.88;2.78;;;;;;;;;;8288903;28;20041;-74
2023/04/26 08:51:32;;;;;;;7.10;2.58;;;;;;;;;;8290022;28;20243;-75
2023/04/26 08:55:32;;;;;;;6.55;2.67;;;;;;;;;;8289437;28;20496;-74
2023/04/26 08:59:34;;;;;;;5.83;2.70;;;;;;;;;;8291761;28;20072;-74
2023/04/26 09:03:35;;;;;;;7.18;2.85;;;;;;;;;;8288276;28;20272;-74
2023/04/26 09:07:44;;;;;;;7.32;2.70;;;;;;;;;;8287808;28;20032;-74
2023/04/26 09:11:54;;;;;;;6.57;2.60;;;;;;;;;;8288114;28;20071;-74
2023/04/26 09:15:55;;;;;;;6.45;2.40;;;;;;;;;;8288838;28;20045;-73
2023/04/26 09:19:55;;;;;;;6.03;2.70;;;;;;;;;;8287990;28;20780;-74
2023/04/26 09:23:56;;;;;;;8.25;2.67;;;;;;;;;;8292666;28;20068;-74
2023/04/26 09:27:57;;;;;;;4.53;2.50;;;;;;;;;;8288051;28;20021;-74
2023/04/26 09:31:57;;;;;;;5.93;2.80;;;;;;;;;;8287168;28;20041;-74
2023/04/26 09:36:09;;;;;;;5.95;2.53;;;;;;;;;;8286749;28;20550;-74
2023/04/26 09:40:18;;;;;;;8.30;2.40;;;;;;;;;;8289344;28;20099;-73
2023/04/26 09:44:22;;;;;;;3.67;1.92;;;;;;;;;;8289176;28;20030;-73
2023/04/26 09:48:22;;;;;;;;;;;;;;;;;;8260335;28;20037;-73
2023/04/26 09:52:22;;;;;;;4.53;2.20;;;;;;;;;;8258735;28;20442;-73
2023/04/26 09:56:22;;;;;;;6.07;2.57;;;;;;;;;;8252682;28;20014;-73
2023/04/26 10:00:24;;;;;;;7.95;2.53;;;;;;;;;;8255076;28;20032;-73
2023/04/26 10:04:24;;;;;;;6.75;2.65;;;;;;;;;;8255617;28;20084;-73
2023/04/26 10:08:25;;;;;;;9.93;2.70;;;;;;;;;;8252978;28;20627;-73
2023/04/26 10:12:25;;;;;;;6.22;2.50;;;;;;;;;;8255434;28;20026;-73
2023/04/26 10:16:25;;;;;;;8.27;2.80;;;;;;;;;;8256818;28;20109;-73
2023/04/26 10:20:27;;;;;;;6.07;2.53;;;;;;;;;;8253426;28;20723;-73
2023/04/26 10:24:27;;;;;;;6.57;2.60;;;;;;;;;;8254122;28;20025;-73
2023/04/26 10:28:40;;;;;;;6.47;2.83;;;;;;;;;;8250319;28;20036;-73
2023/04/26 10:33:09;;;;;;;6.55;2.33;;;;;;;;;;8253526;28;20073;-73
2023/04/26 10:37:10;;;;;;;5.97;2.47;;;;;;;;;;8251903;28;20030;-73
2023/04/26 10:41:26;;;;;;;4.78;2.63;;;;;;;;;;8254271;28;20026;-73
2023/04/26 10:45:27;;;;;;;6.10;2.58;;;;;;;;;;8256047;28;20117;-73
2023/04/26 10:49:41;;;;;;;4.00;2.17;;;;;;;;;;8271210;28;20540;-73
2023/04/26 10:53:50;;;;;;;8.23;2.75;;;;;;;;;;8257323;28;20157;-73
2023/04/26 10:57:51;;;;;;;7.20;3.00;;;;;;;;;;8271581;28;20137;-75
2023/04/26 11:01:51;;;;;;;5.30;2.33;;;;;;;;;;8254271;28;20502;-74
2023/04/26 11:05:54;;;;;;;7.65;2.50;;;;;;;;;;8258956;28;20034;-74
2023/04/26 11:09:54;;;;;;;10.48;2.60;;;;;;;;;;8261652;28;20053;-73
2023/04/26 11:13:55;;;;;;;7.03;2.60;;;;;;;;;;8257112;28;20022;-74
2023/04/26 11:18:00;;;;;;;6.15;2.22;;;;;;;;;;8281057;28;20785;-74
2023/04/26 11:22:01;;;;;;;10.80;2.38;;;;;;;;;;8291144;28;20660;-74
2023/04/26 11:26:02;;;;;;;9.30;2.53;;;;;;;;;;8291996;28;20490;-74
2023/04/26 11:30:04;;;;;;;5.50;2.63;;;;;;;;;;8303422;28;20032;-74
2023/04/26 11:34:04;;;;;;;4.95;2.10;;;;;;;;;;8293002;28;20035;-73
2023/04/26 11:38:04;;;;;;;4.15;2.22;;;;;;;;;;8293433;28;20056;-73
2023/04/26 11:42:11;;;;;;;6.32;2.20;;;;;;;;;;8290331;28;20030;-74
2023/04/26 11:46:11;;;;;;;5.57;2.20;;;;;;;;;;8287894;28;20478;-73
2023/04/26 11:50:12;;;;;;;5.45;2.58;;;;;;;;;;8292653;28;20037;-73
2023/04/26 11:54:25;;;;;;;5.75;2.50;;;;;;;;;;8292012;28;20585;-73
2023/04/26 11:58:25;;;;;;;5.50;2.30;;;;;;;;;;8286090;28;20041;-73
2023/04/26 12:02:29;;;;;;;9.13;2.50;;;;;;;;;;8294610;28;20276;-73
2023/04/26 12:06:31;;;;;;;5.45;1.80;;;;;;;;;;8293763;28;20291;-73
2023/04/26 12:10:34;;;;;;;4.57;1.80;;;;;;;;;;8313952;28;20458;-73
2023/04/26 12:14:35;;;;;;;6.10;2.00;;;;;;;;;;8296305;28;20083;-73
2023/04/26 12:18:35;;;;;;;9.27;2.60;;;;;;;;;;8293978;28;20045;-73
2023/04/26 12:22:35;;;;;;;6.75;2.50;;;;;;;;;;8294329;28;20821;-74
2023/04/26 12:26:43;;;;;;;6.10;2.47;;;;;;;;;;8291002;28;20140;-73
2023/04/26 12:30:43;;;;;;;5.60;2.08;;;;;;;;;;8288751;28;20140;-73
2023/04/26 12:34:43;;;;;;;6.93;2.05;;;;;;;;;;8281344;28;20037;-73
2023/04/26 12:38:43;;;;;;;5.22;1.90;;;;;;;;;;8293871;28;20056;-74
2023/04/26 12:42:43;;;;;;;7.70;2.10;;;;;;;;;;8288787;28;20033;-73
2023/04/26 12:46:44;;;;;;;6.90;2.10;;;;;;;;;;8288892;28;20045;-73
2023/04/26 12:50:44;;;;;;;3.95;2.33;;;;;;;;;;8288426;28;20025;-73
2023/04/26 12:54:45;;;;;;;7.30;2.73;;;;;;;;;;8289489;28;20513;-73
2023/04/26 12:58:46;;;;;;;8.52;2.20;;;;;;;;;;8289690;28;20574;-73
2023/04/26 13:02:46;;;;;;;7.22;1.85;;;;;;;;;;8289358;28;20789;-74
2023/04/26 13:06:46;;;;;;;5.10;2.08;;;;;;;;;;8288181;28;20059;-73
2023/04/26 13:10:46;;;;;;;4.15;2.13;;;;;;;;;;8288013;28;20653;-73
2023/04/26 13:14:47;;;;;;;5.28;2.03;;;;;;;;;;8289022;28;20885;-73
2023/04/26 13:18:47;;;;;;;4.45;2.20;;;;;;;;;;8287552;28;20121;-73
2023/04/26 13:22:48;;;;;;;5.13;2.30;;;;;;;;;;8289212;28;20065;-73
2023/04/26 13:26:48;;;;;;;10.68;2.38;;;;;;;;;;8290507;28;20082;-73
2023/04/26 13:30:48;;;;;;;7.35;2.28;;;;;;;;;;8285230;28;20056;-73
2023/04/26 13:34:48;;;;;;;8.93;4.23;;;;;;;;;;8291428;28;20136;-73
2023/04/26 13:38:48;;;;;;;5.37;2.43;;;;;;;;;;8287199;28;20026;-73
2023/04/26 13:42:49;;;;;;;4.38;2.10;;;;;;;;;;8290061;28;20280;-73
2023/04/26 13:46:49;;;;;;;6.63;2.40;;;;;;;;;;8289312;28;20128;-74
2023/04/26 13:50:49;;;;;;;5.07;2.43;;;;;;;;;;8291910;28;20325;-73
2023/04/26 13:54:49;;;;;;;8.57;2.70;;;;;;;;;;8289759;28;20033;-73
2023/04/26 13:58:53;;;;;;;4.53;2.40;;;;;;;;;;8288560;28;20593;-73
2023/04/26 14:02:53;;;;;;;6.32;2.17;;;;;;;;;;8290837;28;20390;-73
2023/04/26 14:06:53;;;;;;;5.80;2.03;;;;;;;;;;8289106;28;20041;-72
2023/04/26 14:10:53;;;;;;;5.80;2.33;;;;;;;;;;8299590;28;20029;-73
2023/04/26 14:14:54;;;;;;;5.13;2.70;;;;;;;;;;8291535;28;20029;-73
2023/04/26 14:18:54;;;;;;;5.30;1.93;;;;;;;;;;8280790;28;20382;-73
2023/04/26 14:22:54;;;;;;;4.78;1.90;;;;;;;;;;8287035;28;20095;-73
2023/04/26 14:26:55;;;;;;;3.92;1.70;;;;;;;;;;8284686;28;20060;-73
2023/04/26 14:30:55;;;;;;;6.30;2.78;;;;;;;;;;8278995;28;20056;-73
2023/04/26 14:34:55;;;;;;;3.92;1.90;;;;;;;;;;8287654;28;20033;-73
2023/04/26 14:38:55;;;;;;;6.30;2.90;;;;;;;;;;8288470;28;20076;-72
2023/04/26 14:42:56;;;;;;;4.82;2.20;;;;;;;;;;8291439;28;20824;-72
2023/04/26 14:46:56;;;;;;;4.13;1.70;;;;;;;;;;8311965;28;20068;-73
2023/04/26 14:50:56;;;;;;;8.70;2.00;;;;;;;;;;8308970;28;20048;-73
2023/04/26 14:54:57;;;;;;;8.63;2.10;;;;;;;;;;8309782;28;20030;-73
2023/04/26 14:58:57;;;;;;;5.85;2.10;;;;;;;;;;8309936;28;20088;-73
2023/04/26 15:02:57;;;;;;;9.68;2.20;;;;;;;;;;8306119;28;20045;-73
2023/04/26 15:06:57;;;;;;;7.15;2.10;;;;;;;;;;8307993;28;20025;-72
2023/04/26 15:10:58;;;;;;;7.40;1.98;;;;;;;;;;8304995;28;20033;-73
2023/04/26 15:14:58;;;;;;;5.25;2.00;;;;;;;;;;8305821;28;20032;-74
2023/04/26 15:18:58;;;;;;;4.95;2.10;;;;;;;;;;8304019;28;20067;-73
2023/04/26 15:22:58;;;;;;;7.10;1.80;;;;;;;;;;8310809;28;20041;-73
2023/04/26 15:26:58;;;;;;;6.87;2.30;;;;;;;;;;8308577;28;20522;-72
2023/04/26 15:31:02;;;;;;;5.15;2.30;;;;;;;;;;8304834;28;20154;-72
2023/04/26 15:35:04;;;;;;;3.22;1.77;;;;;;;;;;8307866;28;20033;-73
2023/04/26 15:39:04;;;;;;;6.68;2.10;;;;;;;;;;8310419;28;20036;-73
2023/04/26 15:43:04;;;;;;;6.78;2.25;;;;;;;;;;8309331;28;20690;-73
2023/04/26 15:47:05;;;;;;;4.25;1.80;;;;;;;;;;8305954;28;20096;-73
2023/04/26 15:51:05;;;;;;;6.53;2.20;;;;;;;;;;8306219;28;20125;-73
2023/04/26 15:55:06;;;;;;;6.78;1.80;;;;;;;;;;8302935;28;20445;-73
2023/04/26 15:59:06;;;;;;;7.00;1.98;;;;;;;;;;8301285;28;20021;-72
2023/04/26 16:03:06;;;;;;;4.97;1.85;;;;;;;;;;8298268;28;20112;-72
2023/04/26 16:07:06;;;;;;;5.75;1.88;;;;;;;;;;8296489;28;20060;-74
2023/04/26 16:11:07;;;;;;;5.82;1.80;;;;;;;;;;8285328;28;20124;-73
2023/04/26 16:15:08;;;;;;;5.18;1.90;;;;;;;;;;8294355;28;20021;-73
2023/04/26 16:19:08;;;;;;;4.25;1.83;;;;;;;;;;8290857;28;20021;-73
2023/04/26 16:23:09;;;;;;;3.75;1.83;;;;;;;;;;8295811;28;20860;-73
2023/04/26 16:27:09;;;;;;;5.93;1.77;;;;;;;;;;8294588;28;20026;-73
2023/04/26 16:31:09;;;;;;;5.27;2.10;;;;;;;;;;8298303;28;20037;-73
2023/04/26 16:35:10;;;;;;;4.32;1.92;;;;;;;;;;8303678;28;20283;-73
2023/04/26 16:39:11;;;;;;;3.90;1.80;;;;;;;;;;8300607;28;20033;-73
2023/04/26 16:43:13;;;;;;;5.97;2.00;;;;;;;;;;8297233;28;20021;-73
2023/04/26 16:47:13;;;;;;;5.10;2.20;;;;;;;;;;8303464;28;20041;-73
2023/04/26 16:51:13;;;;;;;5.20;2.10;;;;;;;;;;8305039;28;20039;-73
2023/04/26 16:55:13;;;;;;;4.40;1.90;;;;;;;;;;8294224;28;20397;-72
2023/04/26 16:59:14;;;;;;;5.55;1.90;;;;;;;;;;8283125;28;20068;-73
2023/04/26 17:03:14;;;;;;;7.13;1.85;;;;;;;;;;8286158;28;20033;-73
2023/04/26 17:07:15;;;;;;;2.13;1.40;;;;;;;;;;8286528;28;20025;-73
2023/04/26 17:11:15;;;;;;;4.82;1.80;;;;;;;;;;8306496;28;20033;-73
2023/04/26 17:15:15;;;;;;;4.80;1.73;;;;;;;;;;8291037;28;20159;-73
2023/04/26 17:19:16;;;;;;;5.20;1.70;;;;;;;;;;8289392;28;20024;-73
2023/04/26 17:23:16;;;;;;;3.03;1.60;;;;;;;;;;8288954;28;20028;-73
2023/04/26 17:27:16;;;;;;;5.05;1.80;;;;;;;;;;8289941;28;20032;-73
2023/04/26 17:31:17;;;;;;;4.85;2.30;;;;;;;;;;8287883;28;20037;-72
2023/04/26 17:35:17;;;;;;;6.03;2.40;;;;;;;;;;8290613;28;20339;-73
2023/04/26 17:39:18;;;;;;;4.82;1.90;;;;;;;;;;8296930;28;20395;-73
2023/04/26 17:43:18;;;;;;;5.38;2.00;;;;;;;;;;8287850;28;20061;-73
2023/04/26 17:47:19;;;;;;;3.38;1.50;;;;;;;;;;8284318;28;20115;-73
2023/04/26 17:51:19;;;;;;;6.85;1.70;;;;;;;;;;8291772;28;20068;-73
2023/04/26 17:55:19;;;;;;;3.47;1.50;;;;;;;;;;8290377;28;20467;-73
2023/04/26 17:59:20;;;;;;;4.15;1.90;;;;;;;;;;8287058;28;20029;-73
2023/04/26 18:03:20;;;;;;;7.97;1.93;;;;;;;;;;8284524;28;21088;-73
2023/04/26 18:07:20;;;;;;;6.40;1.90;;;;;;;;;;8286243;28;20068;-74
2023/04/26 18:11:21;;;;;;;2.95;1.40;;;;;;;;;;8287119;28;20104;-74
2023/04/26 18:15:21;;;;;;;3.83;1.63;;;;;;;;;;8286197;28;20392;-74
2023/04/26 18:19:21;;;;;;;4.43;1.67;;;;;;;;;;8285443;28;20025;-74
2023/04/26 18:23:22;;;;;;;6.35;2.10;;;;;;;;;;8284839;28;20303;-74
2023/04/26 18:27:22;;;;;;;10.85;2.28;;;;;;;;;;8282688;28;20124;-74
2023/04/26 18:31:22;;;;;;;5.47;2.03;;;;;;;;;;8285010;28;20041;-74
2023/04/26 18:35:22;;;;;;;4.97;1.85;;;;;;;;;;8284978;28;20499;-74
2023/04/26 18:39:22;;;;;;;2.72;1.42;;;;;;;;;;8291363;28;20029;-74
2023/04/26 18:43:22;;;;;;;2.75;1.60;;;;;;;;;;8282898;28;20025;-74
2023/04/26 18:47:23;;;;;;;3.88;1.55;;;;;;;;;;8282523;28;20121;-74
2023/04/26 18:51:23;;;;;;;2.10;1.30;;;;;;;;;;8282636;28;20551;-74
2023/04/26 18:55:24;;;;;;;3.30;1.40;;;;;;;;;;8289294;28;20199;-74
2023/04/26 18:59:25;;;;;;;2.97;1.40;;;;;;;;;;8284131;28;20017;-74
2023/04/26 19:03:26;;;;;;;5.82;1.42;;;;;;;;;;8281401;28;20040;-74
2023/04/26 19:07:27;;;;;;;3.70;1.65;;;;;;;;;;8279291;28;20056;-75
2023/04/26 19:11:27;;;;;;;2.88;1.50;;;;;;;;;;8281466;28;20029;-74
2023/04/26 19:15:27;;;;;;;4.70;1.60;;;;;;;;;;8283745;28;20049;-74
2023/04/26 19:19:27;;;;;;;3.00;1.60;;;;;;;;;;8286948;28;21054;-74
2023/04/26 19:23:27;;;;;;;3.97;1.67;;;;;;;;;;8282436;28;20017;-74
2023/04/26 19:27:28;;;;;;;6.47;2.15;;;;;;;;;;8281331;28;20495;-72
2023/04/26 19:31:28;;;;;;;2.95;1.58;;;;;;;;;;8285373;28;20096;-71
2023/04/26 19:35:28;;;;;;;4.07;1.63;;;;;;;;;;8279815;28;20025;-70
2023/04/26 19:39:28;;;;;;;5.03;1.90;;;;;;;;;;8282053;28;20018;-71
2023/04/26 19:43:29;;;;;;;3.03;1.65;;;;;;;;;;8280529;28;20932;-71
2023/04/26 19:47:29;;;;;;;5.88;2.10;;;;;;;;;;8280040;28;20064;-71
2023/04/26 19:51:30;;;;;;;3.10;1.55;;;;;;;;;;8282769;28;20028;-71
2023/04/26 19:55:30;;;;;;;2.28;1.70;;;;;;;;;;8285936;28;20034;-71
2023/04/26 19:59:30;;;;;;;7.82;2.10;;;;;;;;;;8286429;28;20045;-72
2023/04/26 20:03:31;;;;;;;3.85;2.03;;;;;;;;;;8286299;28;20122;-72
2023/04/26 20:07:31;;;;;;;2.97;1.75;;;;;;;;;;8286839;28;20034;-71
2023/04/26 20:11:32;;;;;;;3.72;1.73;;;;;;;;;;8291080;28;20061;-71
2023/04/26 20:15:33;;;;;;;6.17;2.47;;;;;;;;;;8289298;28;20060;-71
2023/04/26 20:19:33;;;;;;;7.85;3.72;;;;;;;;;;8287096;28;20292;-71
2023/04/26 20:23:33;;;;;;;10.15;3.58;;;;;;;;;;8286637;28;20118;-72
2023/04/26 20:27:33;;;;;;;6.75;3.03;;;;;;;;;;8286479;28;20040;-71
2023/04/26 20:31:33;;;;;;;6.67;3.03;;;;;;;;;;8289960;28;20041;-71
2023/04/26 20:35:34;;;;;;;4.60;2.37;;;;;;;;;;8253900;28;20289;-71
2023/04/26 20:39:34;;;;;;;4.75;3.20;;;;;;;;;;8248837;28;20029;-70
2023/04/26 20:43:34;;;;;;;4.43;2.80;;;;;;;;;;8253790;28;20095;-71
2023/04/26 20:47:35;;;;;;;6.95;2.78;;;;;;;;;;8250583;28;20112;-71
2023/04/26 20:51:35;;;;;;;5.90;2.90;;;;;;;;;;8255307;28;20030;-71
2023/04/26 20:55:36;;;;;;;7.55;2.80;;;;;;;;;;8245346;28;20479;-71
2023/04/26 20:59:39;;;;;;;5.60;2.67;;;;;;;;;;8248721;28;20162;-71
2023/04/26 21:03:39;;;;;;;4.32;2.70;;;;;;;;;;8275654;28;20048;-71
2023/04/26 21:07:40;;;;;;;4.03;2.72;;;;;;;;;;8283870;28;20140;-71
2023/04/26 21:11:41;;;;;;;4.78;2.38;;;;;;;;;;8283767;28;20742;-71
2023/04/26 21:15:41;;;;;;;3.45;2.15;;;;;;;;;;8282816;28;20153;-71
2023/04/26 21:19:41;;;;;;;4.53;2.20;;;;;;;;;;8283490;28;21330;-71
2023/04/26 21:23:41;;;;;;;5.53;2.30;;;;;;;;;;8283630;28;20029;-71
2023/04/26 21:27:42;;;;;;;5.35;1.80;;;;;;;;;;8284677;28;20084;-71
2023/04/26 21:31:42;;;;;;;1.60;1.50;;;;;;;;;;8285950;28;20636;-71
2023/04/26 21:35:42;;;;;;;3.92;1.77;;;;;;;;;;8284675;28;20710;-71
2023/04/26 21:39:42;;;;;;;3.53;1.80;;;;;;;;;;8283949;28;20132;-71
2023/04/26 21:43:42;;;;;;;3.53;1.90;;;;;;;;;;8284966;28;20033;-71
2023/04/26 21:47:42;;;;;;;2.40;1.42;;;;;;;;;;8282650;28;20049;-71
2023/04/26 21:51:42;;;;;;;3.00;1.67;;;;;;;;;;8281691;28;20037;-71
2023/04/26 21:55:43;;;;;;;4.82;2.25;;;;;;;;;;8282693;28;20466;-71
2023/04/26 21:59:43;;;;;;;1.97;1.77;;;;;;;;;;8285341;28;20156;-71
2023/04/26 22:03:43;;;;;;;2.15;1.60;;;;;;;;;;8282736;28;20095;-71
2023/04/26 22:07:43;;;;;;;3.25;1.58;;;;;;;;;;8280876;28;20099;-70
2023/04/26 22:11:44;;;;;;;4.80;1.80;;;;;;;;;;8283958;28;20029;-71
2023/04/26 22:15:44;;;;;;;2.70;1.55;;;;;;;;;;8281971;28;20441;-71
2023/04/26 22:19:45;;;;;;;2.20;1.47;;;;;;;;;;8282188;28;20030;-71
2023/04/26 22:23:45;;;;;;;2.72;1.67;;;;;;;;;;8279301;28;20175;-71
2023/04/26 22:27:45;;;;;;;4.32;2.00;;;;;;;;;;8280662;28;20053;-71
2023/04/26 22:31:45;;;;;;;3.22;1.95;;;;;;;;;;8283745;28;20037;-71
2023/04/26 22:35:46;;;;;;;3.75;2.00;;;;;;;;;;8283236;28;21903;-71
2023/04/26 22:39:46;;;;;;;3.15;1.67;;;;;;;;;;8284445;28;20022;-71
2023/04/26 22:43:46;;;;;;;3.85;1.90;;;;;;;;;;8284379;28;20082;-70
2023/04/26 22:47:46;;;;;;;4.35;1.92;;;;;;;;;;8284287;28;20037;-71
2023/04/26 22:51:47;;;;;;;3.83;1.75;;;;;;;;;;8284559;28;20461;-71
2023/04/26 22:55:47;;;;;;;3.63;1.58;;;;;;;;;;8281878;28;20029;-71
2023/04/26 22:59:47;;;;;;;3.20;1.63;;;;;;;;;;8282147;28;20026;-71
2023/04/26 23:03:47;;;;;;;3.45;1.73;;;;;;;;;;8285186;28;20143;-71
2023/04/26 23:07:47;;;;;;;5.15;1.80;;;;;;;;;;8286989;28;20733;-71
2023/04/26 23:11:48;;;;;;;2.97;1.58;;;;;;;;;;8289810;28;20040;-71
2023/04/26 23:15:48;;;;;;;5.20;1.70;;;;;;;;;;8288488;28;20126;-71
2023/04/26 23:19:48;;;;;;;4.05;1.50;;;;;;;;;;8289871;28;20090;-71
2023/04/26 23:23:48;;;;;;;3.97;1.67;;;;;;;;;;8290020;28;20124;-71
2023/04/26 23:27:48;;;;;;;1.73;1.13;;;;;;;;;;8287613;28;20025;-71
2023/04/26 23:31:48;;;;;;;3.80;1.60;;;;;;;;;;8288895;28;20040;-71
2023/04/26 23:35:49;;;;;;;4.68;2.00;;;;;;;;;;8289044;28;20033;-71
2023/04/26 23:39:49;;;;;;;3.88;1.90;;;;;;;;;;8287082;28;20029;-70
2023/04/26 23:43:50;;;;;;;9.20;2.05;;;;;;;;;;8289753;28;20044;-71
2023/04/26 23:47:50;;;;;;;3.42;1.70;;;;;;;;;;8287537;28;20041;-70
2023/04/26 23:51:50;;;;;;;3.67;1.65;;;;;;;;;;8287487;28;20040;-71
2023/04/26 23:55:50;;;;;;;2.67;1.40;;;;;;;;;;8290513;28;20468;-71
2023/04/26 23:59:51;;;;;;;2.72;1.38;;;;;;;;;;8286193;28;20029;-71
